Time;durP1;ratioP1;P1;durP2;ratioP2;P2;SDS_P1;SDS_P2;PMS_P1;PMS_P2;Temp;Humidity;BMP_temperature;BMP_pressure;BME280_temperature;BME280_humidity;BME280_pressure;Samples;Min_cycle;Max_cycle;Signal;HPM_P1;HPM_P2
2023/01/21 00:01:10;;;;;;;20.63;11.48;;;;;;;3.74;77.30;93314.66;5003582;28;20356;-81
2023/01/21 00:03:35;;;;;;;19.65;12.68;;;;;;;3.71;77.53;93323.16;5003817;28;20213;-82
2023/01/21 00:06:01;;;;;;;22.23;12.35;;;;;;;3.70;77.37;93334.75;5003611;28;20022;-82
2023/01/21 00:08:26;;;;;;;19.20;11.00;;;;;;;3.67;77.43;93328.22;5003709;28;20022;-82
2023/01/21 00:10:53;;;;;;;17.50;10.75;;;;;;;3.68;77.31;93326.34;5003604;28;20029;-82
2023/01/21 00:13:18;;;;;;;17.70;11.25;;;;;;;3.67;77.10;93330.06;5003593;28;20022;-82
2023/01/21 00:15:44;;;;;;;16.60;10.63;;;;;;;3.64;77.26;93328.75;5003418;28;20029;-82
2023/01/21 00:18:09;;;;;;;17.67;10.88;;;;;;;3.59;77.13;93331.47;5003567;28;20057;-82
2023/01/21 00:20:35;;;;;;;17.13;10.77;;;;;;;3.55;77.08;93333.09;5003495;28;20205;-82
2023/01/21 00:23:00;;;;;;;15.85;10.35;;;;;;;3.52;77.34;93336.28;5006921;28;20308;-81
2023/01/21 00:25:26;;;;;;;18.90;11.05;;;;;;;3.52;77.35;93315.19;5007602;28;20022;-81
2023/01/21 00:27:52;;;;;;;19.35;10.18;;;;;;;3.49;77.68;93303.38;5007634;28;20030;-82
2023/01/21 00:30:17;;;;;;;18.75;11.32;;;;;;;3.49;77.54;93327.09;5007643;28;20217;-82
2023/01/21 00:32:43;;;;;;;23.52;11.43;;;;;;;3.48;77.64;93337.91;5007364;28;20347;-82
2023/01/21 00:35:08;;;;;;;21.77;12.23;;;;;;;3.49;77.48;93336.84;5006230;28;20022;-82
2023/01/21 00:37:34;;;;;;;22.08;12.07;;;;;;;3.48;77.13;93343.19;5007178;28;20050;-82
2023/01/21 00:39:59;;;;;;;19.70;12.35;;;;;;;3.42;77.50;93326.66;5007261;28;20308;-82
2023/01/21 00:42:26;;;;;;;22.55;11.98;;;;;;;3.39;77.30;93324.56;5007113;28;20026;-82
2023/01/21 00:44:52;;;;;;;22.00;11.77;;;;;;;3.39;77.62;93322.72;5007430;28;20225;-81
2023/01/21 00:47:18;;;;;;;19.85;10.93;;;;;;;3.39;77.33;93322.72;5007176;28;20022;-82
2023/01/21 00:49:43;;;;;;;27.83;13.25;;;;;;;3.38;77.23;93323.03;5007330;28;20022;-82
2023/01/21 00:52:09;;;;;;;20.60;11.48;;;;;;;3.39;77.30;93322.72;5007178;28;20316;-81
2023/01/21 00:54:34;;;;;;;21.95;12.18;;;;;;;3.39;76.97;93309.53;5007041;28;20056;-82
2023/01/21 00:57:00;;;;;;;16.60;10.15;;;;;;;3.38;77.02;93309.84;5006944;28;20018;-80
2023/01/21 00:59:28;;;;;;;16.08;9.88;;;;;;;3.39;76.82;93322.72;5005734;28;20317;-80
2023/01/21 01:01:54;;;;;;;15.63;10.05;;;;;;;3.40;76.92;93326.94;5006827;28;20079;-81
2023/01/21 01:04:19;;;;;;;19.48;9.73;;;;;;;3.40;76.70;93321.66;5006865;28;20026;-81
2023/01/21 01:06:45;;;;;;;18.13;10.95;;;;;;;3.37;77.30;93324.84;5006873;28;20033;-81
2023/01/21 01:09:11;;;;;;;16.02;10.18;;;;;;;3.40;77.34;93326.94;5005533;28;20177;-81
2023/01/21 01:11:37;;;;;;;17.55;9.98;;;;;;;3.40;77.32;93313.75;5006726;28;20026;-80
2023/01/21 01:14:03;;;;;;;18.45;10.90;;;;;;;3.45;77.10;93320.81;5006546;28;20078;-81
2023/01/21 01:16:29;;;;;;;15.68;9.05;;;;;;;3.42;77.07;93311.63;5006450;28;20090;-81
2023/01/21 01:18:54;;;;;;;16.00;10.13;;;;;;;3.45;77.17;93320.03;5006382;28;20022;-82
2023/01/21 01:21:21;;;;;;;19.00;10.18;;;;;;;3.45;77.08;93320.03;5006561;28;20256;-82
2023/01/21 01:23:47;;;;;;;16.73;9.05;;;;;;;3.41;77.06;93312.69;5006435;28;20049;-83
2023/01/21 01:26:16;;;;;;;14.82;9.38;;;;;;;3.44;77.05;93305.28;5006272;28;20132;-83
2023/01/21 01:28:42;;;;;;;16.45;9.73;;;;;;;3.44;76.87;93303.47;5006051;28;20093;-83
2023/01/21 01:31:11;;;;;;;16.75;10.35;;;;;;;3.47;76.76;93310.00;5006410;28;20205;-83
2023/01/21 01:33:36;;;;;;;18.50;10.00;;;;;;;3.48;76.74;93311.56;5006034;28;20022;-83
2023/01/21 01:36:05;;;;;;;17.50;10.07;;;;;;;3.49;76.86;93311.28;5006060;28;20141;-83
2023/01/21 01:38:31;;;;;;;16.05;9.32;;;;;;;3.51;76.80;93300.47;5005037;28;20096;-83
2023/01/21 01:40:56;;;;;;;19.75;10.57;;;;;;;3.51;76.74;93297.84;5004912;28;20260;-83
2023/01/21 01:43:45;;;;;;;18.95;10.45;;;;;;;3.51;76.70;93297.84;5005671;28;20046;-83
2023/01/21 01:46:10;;;;;;;17.40;10.48;;;;;;;3.49;76.60;93289.44;4995525;28;20106;-84
2023/01/21 01:48:36;;;;;;;16.98;8.90;;;;;;;3.47;76.76;93279.16;5005827;28;20030;-83
2023/01/21 01:51:03;;;;;;;17.50;10.40;;;;;;;3.47;76.76;93266.00;5005770;28;20324;-82
2023/01/21 01:53:30;;;;;;;17.33;10.25;;;;;;;3.45;76.92;93278.66;5005940;28;20030;-83
2023/01/21 01:55:56;;;;;;;16.23;10.05;;;;;;;3.45;77.21;93268.13;5005827;28;20252;-83
2023/01/21 01:58:22;;;;;;;17.02;10.55;;;;;;;3.45;77.07;93262.09;5005834;28;20122;-82
2023/01/21 02:00:47;;;;;;;19.40;11.20;;;;;;;3.45;77.29;93251.53;5005958;28;20101;-82
2023/01/21 02:05:59;;;;;;;17.92;10.52;;;;;;;3.48;77.35;93256.22;5005560;28;20113;-83
2023/01/21 02:08:26;;;;;;;19.50;12.20;;;;;;;3.50;77.37;93254.09;5005649;28;20332;-83
2023/01/21 02:10:54;;;;;;;22.10;11.73;;;;;;;3.52;77.23;93249.31;5005729;28;20061;-82
2023/01/21 02:13:26;;;;;;;15.75;10.52;;;;;;;3.53;77.42;93245.63;5005672;28;20205;-81
2023/01/21 02:16:12;;;;;;;16.77;10.27;;;;;;;3.55;76.89;93238.22;5005657;28;20049;-81
2023/01/21 02:18:55;;;;;;;17.40;9.82;;;;;;;3.45;76.56;93233.88;5005274;28;20026;-81
2023/01/21 02:21:59;;;;;;;16.92;9.35;;;;;;;3.40;77.06;93231.31;5004238;28;20101;-81
2023/01/21 02:24:52;;;;;;;14.77;8.60;;;;;;;3.35;77.32;93226.88;4975080;28;20166;-80
2023/01/21 02:27:41;;;;;;;12.93;8.30;;;;;;;3.33;77.34;93226.38;5005192;28;20340;-81
2023/01/21 02:30:24;;;;;;;15.15;8.60;;;;;;;3.29;77.25;93217.47;5005094;28;20088;-80
2023/01/21 02:33:27;;;;;;;15.32;8.63;;;;;;;3.29;77.31;93221.97;5005171;28;20118;-80
2023/01/21 02:36:01;;;;;;;;;;;;;;;3.25;77.28;93205.94;5005385;28;20022;-80
2023/01/21 02:38:33;;;;;;;11.63;7.93;;;;;;;3.18;77.66;93210.78;5004658;28;19920;-80
2023/01/21 02:41:10;;;;;;;;;;;;;;;3.19;77.79;93196.53;5005195;28;20101;-80
2023/01/21 02:43:41;;;;;;;13.55;8.40;;;;;;;3.16;77.81;93211.06;5004871;28;20247;-80
2023/01/21 02:46:17;;;;;;;15.45;8.50;;;;;;;3.17;77.82;93211.84;5004413;28;20045;-80
2023/01/21 02:49:03;;;;;;;15.15;8.43;;;;;;;3.18;78.00;93216.06;5004927;28;20030;-81
2023/01/21 02:51:28;;;;;;;14.90;8.02;;;;;;;3.18;77.50;93216.81;5004751;28;20030;-81
2023/01/21 02:53:54;;;;;;;14.88;9.38;;;;;;;3.18;77.60;93213.41;5004397;28;20022;-81
2023/01/21 02:56:25;;;;;;;17.08;9.38;;;;;;;3.21;77.98;93216.25;5004799;28;20102;-81
2023/01/21 02:59:01;;;;;;;16.97;9.43;;;;;;;3.22;77.91;93195.97;5004775;28;20025;-81
2023/01/21 03:01:57;;;;;;;14.35;8.50;;;;;;;3.23;77.63;93200.16;5004364;28;20021;-82
2023/01/21 03:04:35;;;;;;;15.48;8.80;;;;;;;3.23;77.83;93200.16;5004672;28;20092;-82
2023/01/21 03:07:23;;;;;;;16.70;8.63;;;;;;;3.25;77.67;93186.72;5003222;28;20316;-82
2023/01/21 03:09:48;;;;;;;16.02;9.18;;;;;;;3.21;77.73;93189.13;5004463;28;20022;-82
2023/01/21 03:12:33;;;;;;;16.27;9.48;;;;;;;3.22;77.78;93185.44;5004323;28;20391;-81
2023/01/21 03:18:07;;;;;;;14.68;8.60;;;;;;;3.17;77.37;93167.84;5004343;28;20021;-81
2023/01/21 03:20:41;;;;;;;13.35;7.80;;;;;;;3.10;77.38;93172.69;5004140;28;20019;-81
2023/01/21 03:23:15;;;;;;;11.95;7.00;;;;;;;3.10;77.20;93167.44;5002891;28;20030;-81
2023/01/21 03:25:41;;;;;;;12.35;7.60;;;;;;;3.06;77.16;93160.38;5004150;28;20038;-81
2023/01/21 03:28:25;;;;;;;13.10;6.97;;;;;;;2.99;77.13;93163.34;5002883;28;20033;-81
2023/01/21 03:31:07;;;;;;;12.35;7.18;;;;;;;2.92;77.42;93161.06;5004139;28;20034;-80
2023/01/21 03:33:36;;;;;;;11.05;6.72;;;;;;;2.89;77.35;93150.31;5004000;28;20347;-80
2023/01/21 03:36:13;;;;;;;10.90;6.80;;;;;;;2.86;77.26;93150.88;5003683;28;20076;-81
2023/01/21 03:38:46;;;;;;;9.43;6.03;;;;;;;2.80;77.23;93148.28;5003808;28;20314;-81
2023/01/21 03:41:27;;;;;;;14.20;6.72;;;;;;;2.76;77.54;93157.03;5003889;28;20045;-81
2023/01/21 03:43:52;;;;;;;10.18;6.07;;;;;;;2.74;77.46;93159.16;5003941;28;20245;-82
2023/01/21 03:46:40;;;;;;;10.75;6.53;;;;;;;2.68;77.54;93149.78;5003676;28;20030;-83
2023/01/21 03:49:10;;;;;;;11.27;6.85;;;;;;;2.62;77.60;93143.78;5003733;28;20046;-82
2023/01/21 03:51:40;;;;;;;11.15;6.60;;;;;;;2.58;77.66;93146.16;5003730;28;20022;-83
2023/01/21 03:54:05;;;;;;;14.85;7.10;;;;;;;2.57;77.67;93147.25;5003755;28;20022;-83
2023/01/21 03:56:30;;;;;;;12.18;6.93;;;;;;;2.55;77.85;93130.97;5001534;28;20014;-82
2023/01/21 03:58:56;;;;;;;13.32;7.72;;;;;;;2.52;78.23;93121.00;5002383;28;20041;-82
2023/01/21 04:01:21;;;;;;;12.63;7.07;;;;;;;2.52;78.67;93141.25;5003739;28;20022;-82
2023/01/21 04:03:47;;;;;;;15.90;8.13;;;;;;;2.53;78.68;93133.09;5002350;28;20026;-81
2023/01/21 04:06:18;;;;;;;13.43;7.18;;;;;;;2.57;78.22;93139.34;5002223;28;20061;-82
2023/01/21 04:08:43;;;;;;;12.98;6.97;;;;;;;2.55;78.11;93141.50;5003413;28;20098;-81
2023/01/21 04:11:09;;;;;;;12.48;6.90;;;;;;;2.50;77.76;93156.53;5003537;28;20022;-81
2023/01/21 04:13:34;;;;;;;11.82;6.82;;;;;;;2.40;78.04;93139.81;5004288;28;20021;-81
2023/01/21 04:16:00;;;;;;;16.38;7.30;;;;;;;2.29;78.56;93137.56;5004377;28;20097;-81
2023/01/21 04:18:25;;;;;;;10.20;6.40;;;;;;;2.20;78.81;93113.72;5002548;28;20026;-81
2023/01/21 04:20:51;;;;;;;11.73;6.90;;;;;;;2.13;79.25;93118.53;5003444;28;20022;-81
2023/01/21 04:23:16;;;;;;;11.07;6.85;;;;;;;2.08;79.92;93110.69;5003419;28;20308;-82
2023/01/21 04:25:42;;;;;;;12.63;7.50;;;;;;;2.10;80.55;93114.59;5003341;28;20308;-83
2023/01/21 04:28:07;;;;;;;13.13;7.88;;;;;;;2.10;80.62;93119.88;5003270;28;20026;-82
2023/01/21 04:30:33;;;;;;;12.82;8.05;;;;;;;2.04;80.56;93131.50;5003407;28;20049;-82
2023/01/21 04:32:58;;;;;;;14.02;8.45;;;;;;;2.05;80.90;93135.69;5003375;28;20224;-82
2023/01/21 04:35:24;;;;;;;12.80;7.53;;;;;;;2.08;80.89;93135.13;5003187;28;20022;-82
2023/01/21 04:37:49;;;;;;;17.95;9.00;;;;;;;2.13;80.91;93135.06;5003527;28;20042;-82
2023/01/21 04:40:15;;;;;;;15.15;8.43;;;;;;;2.17;81.08;93148.44;5003247;28;20050;-82
2023/01/21 04:42:41;;;;;;;15.27;8.55;;;;;;;2.24;80.69;93153.38;5003159;28;20360;-82
2023/01/21 04:45:07;;;;;;;15.10;8.13;;;;;;;2.23;80.58;93159.72;5002065;28;20022;-81
2023/01/21 04:47:32;;;;;;;13.95;7.82;;;;;;;2.16;80.40;93168.72;5003074;28;20036;-80
2023/01/21 04:49:57;;;;;;;11.88;6.93;;;;;;;2.08;80.13;93158.00;5002981;28;20022;-80
2023/01/21 04:52:23;;;;;;;12.52;7.38;;;;;;;1.98;80.58;93164.13;5002045;28;20045;-80
2023/01/21 04:54:49;;;;;;;13.20;7.45;;;;;;;1.87;80.88;93173.16;5003402;28;20220;-80
2023/01/21 04:57:14;;;;;;;16.38;7.63;;;;;;;1.81;81.35;93177.66;5003321;28;20026;-80
2023/01/21 04:59:39;;;;;;;13.90;7.85;;;;;;;1.77;81.86;93164.31;5003113;28;20304;-80
2023/01/21 05:02:05;;;;;;;15.20;7.93;;;;;;;1.74;82.19;93171.94;5003104;28;20026;-80
2023/01/21 05:04:31;;;;;;;15.43;7.65;;;;;;;1.75;82.38;93173.50;5003153;28;20037;-80
2023/01/21 05:06:57;;;;;;;13.38;7.43;;;;;;;1.74;82.80;93174.56;5002850;28;20018;-80
2023/01/21 05:09:23;;;;;;;14.40;8.50;;;;;;;1.80;82.93;93189.25;5006582;28;20025;-80
2023/01/21 05:11:48;;;;;;;17.48;8.88;;;;;;;1.74;83.21;93185.88;5005887;28;20277;-80
2023/01/21 05:14:13;;;;;;;19.27;10.77;;;;;;;1.58;83.58;93202.78;5006623;28;20236;-80
2023/01/21 05:16:39;;;;;;;18.75;10.27;;;;;;;1.59;84.18;93213.03;5006925;28;20014;-81
2023/01/21 05:19:04;;;;;;;23.52;13.07;;;;;;;1.54;84.29;93201.75;5006425;28;20355;-80
2023/01/21 05:21:30;;;;;;;20.05;12.02;;;;;;;1.52;84.73;93209.13;5006589;28;20022;-80
2023/01/21 05:23:55;;;;;;;19.88;12.00;;;;;;;1.53;84.98;93194.97;5006570;28;20026;-80
2023/01/21 05:26:21;;;;;;;21.50;11.98;;;;;;;1.58;84.73;93192.28;5006618;28;20093;-80
2023/01/21 05:28:46;;;;;;;21.13;11.45;;;;;;;1.60;84.70;93198.03;5006207;28;20336;-80
2023/01/21 05:31:11;;;;;;;24.38;12.55;;;;;;;1.65;84.91;93213.78;5005194;28;20396;-80
2023/01/21 05:33:37;;;;;;;20.92;12.18;;;;;;;1.72;84.61;93211.63;5006358;28;20023;-80
2023/01/21 05:36:03;;;;;;;22.92;11.95;;;;;;;1.79;84.38;93217.38;5005116;28;20297;-81
2023/01/21 05:38:28;;;;;;;25.00;12.82;;;;;;;1.82;83.77;93213.41;5006269;28;20038;-81
2023/01/21 05:40:59;;;;;;;21.35;12.07;;;;;;;1.84;83.28;93215.75;5006235;28;20026;-81
2023/01/21 05:43:25;;;;;;;23.98;12.02;;;;;;;1.77;83.35;93222.13;5006297;28;20033;-81
2023/01/21 05:45:50;;;;;;;20.70;12.20;;;;;;;1.78;83.50;93217.63;5006265;28;20316;-81
2023/01/21 05:48:16;;;;;;;20.40;11.70;;;;;;;1.78;82.93;93234.19;5005808;28;20030;-81
2023/01/21 05:50:41;;;;;;;21.33;12.35;;;;;;;1.73;83.15;93230.78;5006118;28;20189;-81
2023/01/21 05:53:07;;;;;;;22.67;12.93;;;;;;;1.70;83.19;93240.00;5005835;28;20072;-80
2023/01/21 05:55:32;;;;;;;24.40;13.50;;;;;;;1.69;83.45;93227.94;5006074;28;20018;-80
2023/01/21 05:57:58;;;;;;;23.35;14.02;;;;;;;1.66;83.53;93236.34;5005988;28;20057;-81
2023/01/21 06:00:23;;;;;;;24.38;14.27;;;;;;;1.69;83.96;93227.16;5005835;28;20348;-81
2023/01/21 06:02:48;;;;;;;27.38;16.05;;;;;;;1.67;84.11;93224.00;5005935;28;20328;-82
2023/01/21 06:05:14;;;;;;;30.80;15.20;;;;;;;1.73;84.18;93223.72;5004625;28;20069;-81
2023/01/21 06:07:39;;;;;;;31.13;15.05;;;;;;;1.76;83.59;93220.53;5005581;28;20037;-81
2023/01/21 06:10:05;;;;;;;25.52;14.07;;;;;;;1.76;83.62;93217.91;5005539;28;20120;-81
2023/01/21 06:12:31;;;;;;;32.88;15.27;;;;;;;1.77;83.49;93222.13;5004379;28;20022;-81
2023/01/21 06:14:58;;;;;;;29.35;15.25;;;;;;;1.79;83.30;93213.94;5005723;28;20037;-81
2023/01/21 06:17:23;;;;;;;31.00;14.50;;;;;;;1.86;83.23;93213.66;5005723;28;20024;-81
2023/01/21 06:19:49;;;;;;;25.40;14.45;;;;;;;1.89;82.95;93215.72;5004857;28;20034;-81
2023/01/21 06:22:15;;;;;;;25.95;13.88;;;;;;;1.93;82.83;93214.88;5005550;28;20032;-81
2023/01/21 06:24:41;;;;;;;27.13;14.93;;;;;;;1.97;82.43;93220.38;5005790;28;20022;-80
2023/01/21 06:27:06;;;;;;;33.42;17.10;;;;;;;1.98;82.58;93219.34;5005307;28;20126;-81
2023/01/21 06:29:32;;;;;;;31.10;15.80;;;;;;;1.98;82.14;93227.22;5005126;28;20036;-81
2023/01/21 06:31:57;;;;;;;27.10;14.52;;;;;;;2.02;82.21;93220.34;5005271;28;20030;-81
2023/01/21 06:34:23;;;;;;;27.55;15.57;;;;;;;2.01;82.31;93237.16;5005236;28;20185;-81
2023/01/21 06:36:48;;;;;;;28.48;15.68;;;;;;;1.99;81.82;93239.28;5005091;28;20042;-81
2023/01/21 06:39:13;;;;;;;27.90;15.85;;;;;;;1.84;82.14;93249.94;5005045;28;20053;-81
2023/01/21 06:41:39;;;;;;;26.85;15.07;;;;;;;1.76;82.53;93244.19;5004914;28;20114;-80
2023/01/21 06:44:05;;;;;;;26.10;14.40;;;;;;;1.69;82.85;93235.84;5004938;28;20126;-82
2023/01/21 06:46:31;;;;;;;33.33;16.65;;;;;;;1.66;83.83;93231.09;5003677;28;20027;-82
2023/01/21 06:48:56;;;;;;;36.90;15.98;;;;;;;1.66;84.15;93241.63;5003784;28;20102;-81
2023/01/21 06:51:21;;;;;;;35.15;16.88;;;;;;;1.74;84.63;93253.41;5004860;28;20049;-81
2023/01/21 06:53:47;;;;;;;33.13;17.45;;;;;;;1.84;84.16;93247.28;5004833;28;20109;-80
2023/01/21 06:56:12;;;;;;;30.60;16.15;;;;;;;1.88;84.30;93264.09;5004671;28;20049;-81
2023/01/21 06:58:38;;;;;;;29.17;15.98;;;;;;;1.95;84.08;93265.31;5004546;28;20022;-81
2023/01/21 07:01:03;;;;;;;30.55;15.63;;;;;;;2.03;83.70;93263.19;5004710;28;20022;-80
2023/01/21 07:03:29;;;;;;;29.58;16.85;;;;;;;2.13;83.63;93273.63;5003301;28;20026;-81
2023/01/21 07:05:54;;;;;;;29.65;15.00;;;;;;;2.21;83.30;93273.03;5004610;28;20050;-81
2023/01/21 07:08:20;;;;;;;31.33;15.02;;;;;;;2.23;82.78;93270.16;5004553;28;20346;-80
2023/01/21 07:10:45;;;;;;;29.20;14.68;;;;;;;2.30;82.62;93273.22;5004583;28;20041;-81
2023/01/21 07:13:11;;;;;;;36.72;16.10;;;;;;;2.37;81.93;93271.84;5004708;28;20022;-81
2023/01/21 07:15:36;;;;;;;32.47;16.73;;;;;;;2.43;82.32;93259.47;5004284;28;20041;-80
2023/01/21 07:18:01;;;;;;;27.30;15.63;;;;;;;2.53;82.16;93261.22;5004334;28;20080;-82
2023/01/21 07:20:27;;;;;;;28.52;14.52;;;;;;;2.63;81.93;93262.97;5004258;28;20321;-82
2023/01/21 07:22:53;;;;;;;24.15;13.73;;;;;;;2.71;81.71;93259.75;5004236;28;20030;-81
2023/01/21 07:25:18;;;;;;;26.10;14.15;;;;;;;2.78;81.51;93260.97;5004439;28;20026;-82
2023/01/21 07:27:44;;;;;;;26.42;11.88;;;;;;;2.91;81.41;93266.63;5004159;28;20026;-81
2023/01/21 07:30:19;;;;;;;18.00;10.75;;;;;;;3.04;80.98;93265.19;5003849;28;20137;-81
2023/01/21 07:32:46;;;;;;;18.90;9.38;;;;;;;3.14;80.56;93255.31;5004196;28;20239;-81
2023/01/21 07:35:12;;;;;;;13.88;8.57;;;;;;;3.21;80.44;93263.66;5002852;28;20093;-81
2023/01/21 07:37:37;;;;;;;16.02;8.82;;;;;;;3.34;79.83;93251.66;5003990;28;20053;-81
2023/01/21 07:40:03;;;;;;;15.75;8.35;;;;;;;3.48;79.31;93237.78;5003853;28;20026;-81
2023/01/21 07:42:28;;;;;;;14.90;6.88;;;;;;;3.60;78.76;93238.97;5003775;28;20018;-80
2023/01/21 07:44:54;;;;;;;13.35;6.03;;;;;;;3.70;78.82;93232.75;5003629;28;20025;-81
2023/01/21 07:47:20;;;;;;;13.23;5.90;;;;;;;3.83;78.21;93231.25;5003837;28;20044;-81
2023/01/21 07:49:48;;;;;;;9.20;4.70;;;;;;;3.88;77.61;93231.19;5003687;28;20320;-81
2023/01/21 07:52:13;;;;;;;6.32;3.97;;;;;;;4.04;76.91;93229.09;5003619;28;20026;-81
2023/01/21 07:54:39;;;;;;;8.73;4.15;;;;;;;4.13;76.28;93232.66;5003556;28;20089;-81
2023/01/21 07:57:04;;;;;;;7.07;3.58;;;;;;;4.24;75.67;93220.09;5003503;28;20383;-82
2023/01/21 07:59:29;;;;;;;12.55;2.80;;;;;;;4.34;75.03;93227.06;5003454;28;20018;-82
2023/01/21 08:01:56;;;;;;;13.95;3.08;;;;;;;4.45;74.68;93231.09;5002532;28;20033;-82
2023/01/21 08:04:22;;;;;;;10.32;3.10;;;;;;;4.61;74.36;93228.97;5003745;28;20022;-80
2023/01/21 08:06:49;;;;;;;6.72;3.83;;;;;;;4.74;73.63;93215.03;5002501;28;20061;-81
2023/01/21 08:09:15;;;;;;;10.23;3.47;;;;;;;4.72;73.88;93219.81;5003485;28;20033;-81
2023/01/21 08:11:42;;;;;;;6.93;3.17;;;;;;;4.73;72.82;93233.78;5003416;28;20025;-79
2023/01/21 08:14:07;;;;;;;5.30;2.53;;;;;;;4.91;72.76;93250.63;5003412;28;20022;-79
2023/01/21 08:16:33;;;;;;;6.38;2.60;;;;;;;5.00;72.44;93239.06;5003461;28;20137;-80
2023/01/21 08:18:58;;;;;;;9.27;2.97;;;;;;;5.12;72.61;93238.59;5003494;28;20030;-82
2023/01/21 08:21:24;;;;;;;4.40;2.88;;;;;;;5.25;72.20;93231.78;5003440;28;20259;-81
2023/01/21 08:23:49;;;;;;;12.18;2.95;;;;;;;5.33;71.45;93239.00;5003629;28;20026;-81
2023/01/21 08:26:15;;;;;;;8.57;3.33;;;;;;;5.38;71.10;93252.09;5003212;28;20026;-81
2023/01/21 08:28:40;;;;;;;7.22;3.83;;;;;;;5.46;70.54;93231.34;5003253;28;20026;-81
2023/01/21 08:31:10;;;;;;;7.03;4.07;;;;;;;5.45;70.21;93245.63;5003436;28;20030;-81
2023/01/21 08:33:35;;;;;;;4.75;2.55;;;;;;;5.51;70.04;93255.03;5003130;28;20026;-80
2023/01/21 08:36:04;;;;;;;8.25;3.35;;;;;;;5.64;69.38;93254.25;5003326;28;20046;-80
2023/01/21 08:38:30;;;;;;;9.52;2.92;;;;;;;5.74;69.42;93256.66;5003201;28;20103;-80
2023/01/21 08:40:59;;;;;;;6.68;2.85;;;;;;;5.83;69.01;93260.16;5003206;28;20025;-81
2023/01/21 08:43:25;;;;;;;6.57;2.83;;;;;;;5.98;68.85;93256.44;5005481;28;20312;-81
2023/01/21 08:45:54;;;;;;;7.25;2.78;;;;;;;6.07;68.95;93259.16;5007278;28;20025;-82
2023/01/21 08:48:19;;;;;;;6.75;2.92;;;;;;;6.22;68.65;93265.97;5006838;28;20042;-80
2023/01/21 08:50:44;;;;;;;8.85;3.38;;;;;;;6.39;67.87;93262.66;5007202;28;20030;-79
2023/01/21 08:53:10;;;;;;;6.93;2.47;;;;;;;6.49;67.58;93265.06;5007099;28;20058;-82
2023/01/21 08:55:41;;;;;;;5.55;2.47;;;;;;;6.63;68.70;93268.44;5006955;28;20293;-82
2023/01/21 08:58:07;;;;;;;8.77;2.58;;;;;;;6.77;67.62;93267.56;5006933;28;20093;-82
2023/01/21 09:00:32;;;;;;;5.70;2.17;;;;;;;6.86;68.16;93263.13;5006733;28;20029;-82
2023/01/21 09:02:58;;;;;;;7.13;2.80;;;;;;;6.98;67.97;93273.94;5006594;28;20026;-82
2023/01/21 09:05:24;;;;;;;10.20;2.50;;;;;;;7.13;66.25;93269.31;5006908;28;20228;-82
2023/01/21 09:07:49;;;;;;;4.05;2.25;;;;;;;7.27;66.21;93269.22;5006819;28;20097;-82
2023/01/21 09:10:59;;;;;;;5.28;2.70;;;;;;;7.37;66.36;93258.34;5006648;28;20209;-82
2023/01/21 09:13:06;;;;;;;18.27;2.80;;;;;;;7.52;65.17;93246.53;5006605;28;20046;-82
2023/01/21 09:15:39;;;;;;;4.80;2.22;;;;;;;7.62;65.59;93272.75;5006712;28;20030;-82
2023/01/21 09:18:04;;;;;;;8.02;1.85;;;;;;;7.68;64.87;93260.91;5006446;28;20045;-82
2023/01/21 09:20:30;;;;;;;4.13;1.80;;;;;;;7.75;64.21;93247.19;5006808;28;20030;-82
2023/01/21 09:22:57;;;;;;;8.20;2.70;;;;;;;7.82;63.73;93250.94;5006566;28;20030;-80
2023/01/21 09:25:22;;;;;;;6.13;2.80;;;;;;;7.78;62.61;93247.34;5006574;28;20030;-78
2023/01/21 09:27:48;;;;;;;5.80;3.03;;;;;;;7.72;63.48;93258.44;5006991;28;20030;-88
2023/01/21 09:30:13;;;;;;;7.03;4.13;;;;;;;7.77;63.33;93255.63;5010483;28;20037;-87
2023/01/21 09:32:39;;;;;;;4.88;2.72;;;;;;;7.70;63.40;93250.00;5011391;28;20032;-88
2023/01/21 09:35:04;;;;;;;11.80;3.22;;;;;;;7.73;64.33;93242.19;5006347;28;20086;-87
2023/01/21 09:37:33;;;;;;;7.28;3.80;;;;;;;7.70;63.24;93224.25;5007963;28;20076;-90
2023/01/21 09:39:59;;;;;;;5.97;2.70;;;;;;;7.66;63.51;93233.16;5007010;28;20089;-88
2023/01/21 09:42:27;;;;;;;6.55;2.45;;;;;;;7.59;63.06;93229.06;5007450;28;20061;-88
2023/01/21 09:44:56;;;;;;;5.18;3.00;;;;;;;7.65;63.52;93224.38;5006998;28;20093;-87
2023/01/21 09:47:25;;;;;;;7.93;2.72;;;;;;;7.67;64.05;93221.44;5006469;28;20030;-88
2023/01/21 09:49:58;;;;;;;6.95;2.50;;;;;;;7.66;63.38;93219.88;5006333;28;20025;-88
2023/01/21 09:52:36;;;;;;;6.75;2.53;;;;;;;7.70;63.77;93216.28;5006205;28;20041;-87
2023/01/21 09:55:03;;;;;;;5.72;2.30;;;;;;;7.72;62.74;93213.34;5005391;28;20154;-90
2023/01/21 09:57:44;;;;;;;10.50;2.35;;;;;;;7.77;62.97;93213.94;5006538;28;20018;-90
2023/01/21 10:00:25;;;;;;;3.78;1.92;;;;;;;7.83;62.32;93207.41;5006656;28;20045;-91
2023/01/21 10:03:05;;;;;;;4.97;2.30;;;;;;;7.84;62.39;93193.06;5007029;28;20026;-90
2023/01/21 10:05:55;;;;;;;6.63;2.25;;;;;;;7.95;62.45;93196.16;5005700;28;20030;-90
2023/01/21 10:08:30;;;;;;;7.93;2.33;;;;;;;8.04;61.45;93181.03;5006776;28;20272;-91
2023/01/21 10:11:07;;;;;;;4.05;2.15;;;;;;;8.10;61.50;93200.25;5006997;28;20304;-91
2023/01/21 10:14:25;;;;;;;3.30;2.17;;;;;;;8.19;61.09;93181.66;5006802;28;20068;-91
2023/01/21 10:17:09;;;;;;;3.63;1.80;;;;;;;8.27;60.94;93186.16;4928824;28;20030;-91
2023/01/21 10:19:40;;;;;;;5.20;2.25;;;;;;;8.27;60.87;93185.41;5007733;28;20097;-90
2023/01/21 10:22:17;;;;;;;3.65;1.95;;;;;;;8.38;60.21;93189.28;5007798;28;20040;-90
2023/01/21 10:25:23;;;;;;;;;;;;;;;;;;;;;
2023/01/21 10:28:31;;;;;;;6.05;2.58;;;;;;;8.46;59.35;93191.16;5006567;28;20041;-91
2023/01/21 10:31:58;;;;;;;19.80;2.83;;;;;;;8.56;59.83;93195.38;5006745;28;20026;-93
2023/01/21 10:34:28;;;;;;;5.78;1.65;;;;;;;8.57;58.48;93192.41;5005643;28;20046;-90
2023/01/21 10:37:30;;;;;;;7.20;2.88;;;;;;;8.56;59.06;93192.72;5005236;28;20046;-90
2023/01/21 10:40:41;;;;;;;4.32;2.38;;;;;;;8.59;59.30;93184.13;4973384;28;20038;-91
2023/01/21 10:43:13;;;;;;;4.18;2.10;;;;;;;8.73;59.10;93167.97;5006082;28;20229;-91
2023/01/21 10:46:09;;;;;;;5.13;2.28;;;;;;;8.81;58.32;93170.63;5004867;28;20026;-91
2023/01/21 10:49:01;;;;;;;5.82;1.65;;;;;;;8.94;58.37;93174.16;5004635;28;20105;-91
2023/01/21 10:51:42;;;;;;;3.40;1.65;;;;;;;9.09;57.95;93166.75;5005882;28;20030;-92
2023/01/21 10:54:50;;;;;;;7.25;2.90;;;;;;;9.17;57.31;93168.59;5006013;28;20049;-92
2023/01/21 10:57:34;;;;;;;8.48;1.77;;;;;;;9.23;57.51;93167.28;5005570;28;20018;-91
2023/01/21 11:00:03;;;;;;;4.05;1.83;;;;;;;9.27;56.61;93160.22;5005698;28;20097;-91
2023/01/21 11:02:35;;;;;;;4.47;1.88;;;;;;;9.35;57.37;93162.06;5004751;28;20110;-91
2023/01/21 11:05:03;;;;;;;4.97;1.48;;;;;;;9.49;56.38;93150.41;5004000;28;20050;-91
2023/01/21 11:07:35;;;;;;;4.13;1.70;;;;;;;9.58;55.75;93156.44;5005632;28;20076;-92
2023/01/21 11:10:04;;;;;;;11.63;1.77;;;;;;;9.66;56.43;93149.53;5004858;28;20093;-89
2023/01/21 11:12:31;;;;;;;3.15;1.83;;;;;;;9.72;54.72;93153.53;5004589;28;20022;-89
2023/01/21 11:14:59;;;;;;;6.63;1.60;;;;;;;9.77;54.55;93140.84;5004643;28;20018;-89
2023/01/21 11:17:34;;;;;;;4.75;1.23;;;;;;;9.82;54.92;93151.25;5004768;28;20014;-89
2023/01/21 11:20:03;;;;;;;5.20;1.88;;;;;;;9.88;54.81;93151.09;5003651;28;20022;-89
2023/01/21 11:22:31;;;;;;;4.07;1.65;;;;;;;9.99;54.31;93162.88;5004743;28;20206;-88
2023/01/21 11:24:58;;;;;;;3.20;1.70;;;;;;;10.12;53.65;93155.75;5004782;28;20030;-88
2023/01/21 11:27:26;;;;;;;8.48;2.03;;;;;;;10.21;53.66;93157.19;5004927;28;20049;-88
2023/01/21 11:29:52;;;;;;;4.72;1.98;;;;;;;10.30;52.57;93167.81;5004529;28;20026;-88
2023/01/21 11:32:23;;;;;;;4.90;2.15;;;;;;;10.33;53.22;93172.47;5004615;28;20033;-82
2023/01/21 11:35:06;;;;;;;10.77;1.88;;;;;;;10.39;53.25;93167.75;5004660;28;20026;-82
2023/01/21 11:37:44;;;;;;;4.75;1.65;;;;;;;10.40;52.57;93161.28;5004140;28;20053;-87
2023/01/21 11:40:24;;;;;;;4.38;1.80;;;;;;;10.37;52.21;93168.06;5002949;28;20217;-86
2023/01/21 11:42:55;;;;;;;3.28;1.63;;;;;;;10.36;52.64;93149.72;5004439;28;20030;-87
2023/01/21 11:45:29;;;;;;;4.03;1.60;;;;;;;10.44;53.03;93151.53;5004162;28;20029;-88
2023/01/21 11:48:42;;;;;;;6.95;1.38;;;;;;;10.57;52.66;93166.47;5003855;28;20026;-88
2023/01/21 11:51:09;;;;;;;2.65;1.55;;;;;;;10.70;51.72;93159.25;4975530;28;20061;-87
2023/01/21 11:53:36;;;;;;;3.60;2.00;;;;;;;10.80;51.97;93164.16;5002981;28;20034;-87